Time;durP1;ratioP1;P1;durP2;ratioP2;P2;SDS_P1;SDS_P2;PMS_P1;PMS_P2;Temp;Humidity;BMP_temperature;BMP_pressure;BME280_temperature;BME280_humidity;BME280_pressure;Samples;Min_cycle;Max_cycle;Signal;HPM_P1;HPM_P2
2023/09/02 00:07:53;;;;;;;2.20;1.23;;;;;;;18.44;89.17;99282.09;7242469;39;20470;31
2023/09/02 00:13:28;;;;;;;3.47;1.33;;;;;;;18.41;88.55;99290.72;7279244;39;20362;31
2023/09/02 00:18:48;;;;;;;3.00;1.50;;;;;;;18.39;88.87;99288.22;7258289;40;20257;31
2023/09/02 00:24:25;;;;;;;2.65;1.45;;;;;;;18.37;88.46;99284.87;7297961;39;20311;31
2023/09/02 00:29:45;;;;;;;3.60;1.40;;;;;;;18.33;88.39;99293.69;7248938;39;20377;31
2023/09/02 00:35:07;;;;;;;2.50;1.40;;;;;;;18.26;88.36;99295.59;7310534;39;20266;31
2023/09/02 00:40:43;;;;;;;2.20;1.50;;;;;;;18.02;89.33;99289.78;7249277;40;20257;31
2023/09/02 00:46:22;;;;;;;2.73;1.57;;;;;;;17.91;89.32;99295.88;7260473;39;20342;31
2023/09/02 00:52:00;;;;;;;2.20;1.50;;;;;;;17.83;90.05;99293.34;7310578;39;20332;31
2023/09/02 00:57:37;;;;;;;2.83;1.40;;;;;;;17.87;90.17;99293.75;7240378;40;20324;31
2023/09/02 01:03:14;;;;;;;3.50;1.60;;;;;;;17.94;90.54;99290.00;7234996;40;20334;31
2023/09/02 01:08:49;;;;;;;2.73;1.60;;;;;;;17.98;90.99;99299.44;7183675;40;20242;31
2023/09/02 01:14:25;;;;;;;1.73;1.40;;;;;;;18.08;90.13;99298.97;7151052;40;20271;31
2023/09/02 01:20:01;;;;;;;2.80;1.60;;;;;;;18.14;90.22;99291.84;7142975;40;20327;31
2023/09/02 01:25:44;;;;;;;1.90;1.45;;;;;;;18.07;90.29;99291.03;7151018;40;20347;31
2023/09/02 01:31:20;;;;;;;3.60;1.40;;;;;;;18.02;90.35;99299.84;7139991;40;20369;31
2023/09/02 01:36:56;;;;;;;4.70;1.40;;;;;;;18.10;90.11;99304.22;7145847;40;20242;31
2023/09/02 01:42:30;;;;;;;3.23;1.43;;;;;;;18.13;89.85;99293.72;7190238;40;20328;31
2023/09/02 01:48:07;;;;;;;1.63;1.30;;;;;;;18.16;89.38;99301.50;7172517;40;20251;31
2023/09/02 01:53:42;;;;;;;2.05;1.50;;;;;;;18.17;89.01;99300.44;7150687;40;20396;31
2023/09/02 01:59:17;;;;;;;2.00;1.35;;;;;;;18.12;88.74;99304.88;7209578;40;20374;31
2023/09/02 02:04:54;;;;;;;3.50;1.40;;;;;;;17.99;89.32;99306.53;7062179;40;20251;31
2023/09/02 02:10:29;;;;;;;2.00;1.80;;;;;;;17.97;89.62;99313.28;7284188;39;20355;31
2023/09/02 02:21:21;;;;;;;1.90;1.50;;;;;;;18.00;89.06;99319.16;7238103;40;20275;31
2023/09/02 02:26:42;;;;;;;4.50;1.40;;;;;;;17.89;89.67;99325.25;7213218;40;20652;31
2023/09/02 02:32:06;;;;;;;2.10;1.40;;;;;;;17.82;89.34;99312.66;7259147;39;20700;31
2023/09/02 02:37:43;;;;;;;3.50;1.40;;;;;;;17.69;90.37;99321.66;7278408;40;20938;31
2023/09/02 02:43:24;;;;;;;2.53;1.40;;;;;;;17.62;91.66;99326.28;7212189;40;20318;31
2023/09/02 02:48:55;;;;;;;2.90;1.30;;;;;;;17.76;91.55;99329.87;7160081;40;20319;31
2023/09/02 02:54:31;;;;;;;3.90;1.60;;;;;;;17.94;90.72;99327.34;7239626;40;20241;31
2023/09/02 02:59:53;;;;;;;2.03;1.40;;;;;;;18.02;90.30;99336.16;7253177;40;20299;31
2023/09/02 03:05:30;;;;;;;2.50;1.50;;;;;;;17.92;90.04;99335.72;7268449;39;20260;31
2023/09/02 03:11:11;;;;;;;3.35;1.60;;;;;;;17.82;90.42;99342.62;7196745;40;20258;31
2023/09/02 03:16:33;;;;;;;1.20;1.10;;;;;;;17.86;90.62;99344.75;7161360;40;20262;31
2023/09/02 03:21:53;;;;;;;3.03;1.50;;;;;;;17.84;89.81;99348.75;7168266;40;20455;31
2023/09/02 03:27:29;;;;;;;2.10;1.73;;;;;;;17.67;90.93;99353.78;7209446;40;20303;31
2023/09/02 03:33:07;;;;;;;3.30;1.80;;;;;;;17.65;90.85;99350.41;7204135;40;20266;31
2023/09/02 03:38:40;;;;;;;3.00;1.60;;;;;;;17.57;91.18;99345.97;7197569;40;20258;31
2023/09/02 03:44:16;;;;;;;3.00;1.67;;;;;;;17.59;91.38;99339.50;7235755;39;20323;31
2023/09/02 03:49:37;;;;;;;2.10;1.60;;;;;;;17.65;91.42;99346.81;7216647;40;20293;31
2023/09/02 04:00:18;;;;;;;6.80;1.70;;;;;;;17.73;91.12;99338.44;7316034;39;21039;31
2023/09/02 04:10:58;;;;;;;3.15;1.70;;;;;;;17.84;90.60;99355.03;7325905;39;20272;31
2023/09/02 04:16:35;;;;;;;3.70;1.60;;;;;;;17.85;90.34;99345.81;7319746;39;20334;31
2023/09/02 04:22:10;;;;;;;3.22;1.70;;;;;;;17.83;90.64;99345.16;7226843;40;20391;31
2023/09/02 04:27:45;;;;;;;3.77;1.70;;;;;;;17.80;90.46;99342.88;7159753;40;20419;31
2023/09/02 04:33:21;;;;;;;1.90;1.60;;;;;;;17.80;90.37;99352.94;7204732;40;20262;31
2023/09/02 04:38:41;;;;;;;2.90;1.90;;;;;;;17.69;90.45;99339.91;7176107;40;20347;31
2023/09/02 04:44:13;;;;;;;2.55;1.50;;;;;;;17.61;90.92;99346.41;7178603;40;20269;31
2023/09/02 04:49:50;;;;;;;4.30;1.83;;;;;;;17.51;90.71;99345.94;7204386;40;20237;31
2023/09/02 04:55:11;;;;;;;3.63;1.60;;;;;;;17.60;91.04;99354.78;7175309;40;20261;31
2023/09/02 05:00:47;;;;;;;5.67;1.57;;;;;;;17.46;90.52;99349.28;7210076;40;20332;31
2023/09/02 05:11:31;;;;;;;3.50;1.70;;;;;;;17.24;92.66;99358.69;7256024;39;20266;31
2023/09/02 05:16:52;;;;;;;4.40;2.00;;;;;;;17.24;92.88;99369.59;7263597;40;20725;31
2023/09/02 05:22:12;;;;;;;5.25;1.70;;;;;;;17.29;93.46;99374.44;7295870;39;20585;31
2023/09/02 05:32:53;;;;;;;4.05;1.70;;;;;;;17.31;93.44;99377.78;7334231;39;20278;31
2023/09/02 05:43:33;;;;;;;7.00;1.63;;;;;;;17.57;92.45;99391.47;7258019;40;20257;31
2023/09/02 05:49:10;;;;;;;3.15;1.60;;;;;;;17.64;91.77;99388.78;7281242;39;20269;31
2023/09/02 05:54:45;;;;;;;4.17;1.70;;;;;;;17.75;91.51;99399.91;7229537;40;20381;31
2023/09/02 06:00:22;;;;;;;3.47;1.50;;;;;;;17.80;91.65;99391.97;7217814;40;20250;31
2023/09/02 06:06:01;;;;;;;2.20;1.50;;;;;;;17.85;91.34;99400.34;7175637;40;20263;31
2023/09/02 06:11:46;;;;;;;;;;;;;;;;;;;;;
2023/09/02 06:22:18;;;;;;;3.23;1.47;;;;;;;18.14;91.72;99409.16;7170696;40;20697;31
2023/09/02 06:27:53;;;;;;;5.52;1.66;;;;;;;18.26;91.05;99411.03;7268113;40;20271;31
2023/09/02 06:33:28;;;;;;;2.35;1.50;;;;;;;18.33;92.03;99416.50;7280361;39;20245;31
2023/09/02 06:39:05;;;;;;;2.10;1.55;;;;;;;18.42;91.16;99424.28;7270774;40;20413;31
2023/09/02 06:44:26;;;;;;;2.00;1.80;;;;;;;18.59;91.15;99430.16;7237510;40;20246;31
2023/09/02 06:49:46;;;;;;;5.40;1.90;;;;;;;18.74;90.25;99430.75;7210129;40;20249;31
2023/09/02 06:55:23;;;;;;;3.42;2.08;;;;;;;18.79;90.20;99435.56;7174893;40;20242;31
2023/09/02 07:00:40;;;;;;;3.10;2.25;;;;;;;18.90;90.02;99449.44;7199370;40;20340;31
2023/09/02 07:06:13;;;;;;;6.60;3.10;;;;;;;19.02;90.55;99449.59;7217431;40;20242;31
2023/09/02 07:11:56;;;;;;;4.38;2.52;;;;;;;19.13;90.39;99450.84;7217379;40;20310;31
2023/09/02 07:17:33;;;;;;;4.75;3.45;;;;;;;19.30;91.05;99454.75;7255441;40;20251;31
2023/09/02 07:22:53;;;;;;;4.80;2.70;;;;;;;19.52;89.38;99466.28;7319012;39;20349;31
2023/09/02 07:28:27;;;;;;;3.13;2.60;;;;;;;19.56;88.76;99462.88;7296731;39;20435;31
2023/09/02 07:39:10;;;;;;;4.00;2.60;;;;;;;19.77;87.84;99461.72;7304993;39;20361;31
2023/09/02 07:44:47;;;;;;;8.65;4.05;;;;;;;19.87;86.36;99469.44;7289397;39;20351;31
2023/09/02 07:50:10;;;;;;;4.10;3.40;;;;;;;20.04;86.91;99470.59;7266325;40;20244;31
2023/09/02 07:55:47;;;;;;;3.17;2.80;;;;;;;20.10;86.41;99472.44;7281358;39;20236;31
2023/09/02 08:01:23;;;;;;;4.20;2.70;;;;;;;20.15;84.35;99469.88;7185282;40;20380;31
2023/09/02 08:06:44;;;;;;;4.93;3.30;;;;;;;20.27;84.07;99484.53;7161362;40;20349;31
2023/09/02 08:12:19;;;;;;;4.65;2.45;;;;;;;20.36;83.74;99476.94;7119952;40;20427;31
2023/09/02 08:17:56;;;;;;;5.80;2.20;;;;;;;20.60;84.34;99476.91;7197213;40;20346;31
2023/09/02 08:23:34;;;;;;;5.20;2.40;;;;;;;20.82;83.12;99488.28;7208978;40;20389;31
2023/09/02 08:29:09;;;;;;;3.30;2.23;;;;;;;21.01;82.25;99486.44;7217570;40;20261;31
2023/09/02 08:34:43;;;;;;;2.47;2.20;;;;;;;21.05;80.81;99490.41;7235629;40;20254;31
2023/09/02 08:40:19;;;;;;;2.47;1.80;;;;;;;21.30;81.70;99499.41;7266857;39;20248;31
2023/09/02 08:45:50;;;;;;;3.05;1.62;;;;;;;21.52;80.27;99500.63;7223681;40;21141;31
2023/09/02 08:51:29;;;;;;;2.40;1.80;;;;;;;21.74;79.92;99491.91;7269531;40;20253;31
2023/09/02 08:57:01;;;;;;;2.62;1.85;;;;;;;21.87;78.95;99492.56;7015061;40;20243;31
2023/09/02 09:02:36;;;;;;;2.85;1.50;;;;;;;22.09;77.98;99500.31;7147142;40;20258;31
2023/09/02 09:08:17;;;;;;;1.87;1.45;;;;;;;22.29;77.47;99504.44;7156085;40;20247;31
2023/09/02 09:13:54;;;;;;;3.12;1.65;;;;;;;22.55;77.60;99505.94;7186811;40;20234;31
2023/09/02 09:19:29;;;;;;;1.60;1.50;;;;;;;22.74;75.58;99498.44;7149971;40;20366;31
2023/09/02 09:25:05;;;;;;;2.60;1.60;;;;;;;22.86;75.56;99502.06;7143585;40;20248;31
2023/09/02 09:30:33;;;;;;;1.90;1.53;;;;;;;23.15;74.91;99500.25;7238126;40;20327;31
2023/09/02 09:36:06;;;;;;;1.95;1.45;;;;;;;23.32;72.78;99499.25;7228407;40;20245;31
2023/09/02 09:41:48;;;;;;;2.28;1.73;;;;;;;23.50;71.32;99497.47;7198205;40;21154;31
2023/09/02 09:47:24;;;;;;;2.67;1.60;;;;;;;23.73;72.87;99509.25;7170227;40;20290;31
2023/09/02 09:53:17;;;;;;;2.20;1.42;;;;;;;23.99;72.59;99507.00;7132040;40;20267;31
2023/09/02 09:58:55;;;;;;;3.28;1.77;;;;;;;24.23;70.85;99508.59;7239962;40;20343;31
2023/09/02 10:04:16;;;;;;;2.50;1.70;;;;;;;24.43;69.61;99525.50;7263595;39;20279;31
2023/09/02 10:10:00;;;;;;;2.20;1.65;;;;;;;24.48;69.04;99511.81;7248092;39;20269;31
2023/09/02 10:15:37;;;;;;;2.12;1.73;;;;;;;24.64;70.36;99510.16;7213487;40;20313;31
2023/09/02 10:21:38;;;;;;;3.87;1.70;;;;;;;24.80;68.70;99509.28;7178736;40;20336;31
2023/09/02 10:32:19;;;;;;;2.17;1.80;;;;;;;25.09;68.72;99508.16;7208324;40;20659;31
2023/09/02 10:37:57;;;;;;;2.60;1.70;;;;;;;25.26;66.66;99510.03;7200102;40;20257;31
2023/09/02 10:43:32;;;;;;;2.77;1.60;;;;;;;25.42;67.74;99504.47;7184976;40;20320;31
2023/09/02 10:49:06;;;;;;;3.70;1.70;;;;;;;25.63;66.79;99502.81;7141642;40;20239;31
2023/09/02 11:00:26;;;;;;;3.35;1.65;;;;;;;25.92;66.18;99496.03;7170104;40;20736;31
2023/09/02 11:06:19;;;;;;;1.95;1.70;;;;;;;25.95;65.22;99503.78;7219738;40;20277;31
2023/09/02 11:17:00;;;;;;;2.07;1.80;;;;;;;26.30;65.39;99502.50;7257671;40;20569;31
2023/09/02 11:23:04;;;;;;;2.52;1.66;;;;;;;26.46;64.50;99505.16;7276638;40;20256;31
2023/09/02 11:28:42;;;;;;;3.35;2.00;;;;;;;26.52;65.28;99506.03;7238364;40;20269;31
2023/09/02 11:34:16;;;;;;;3.75;2.20;;;;;;;26.56;64.92;99506.34;7220260;40;20445;31
2023/09/02 11:39:36;;;;;;;2.78;2.00;;;;;;;26.65;64.26;99522.19;7176899;40;20446;31
2023/09/02 11:50:12;;;;;;;3.75;2.00;;;;;;;26.92;63.40;99507.50;7277407;39;21165;31
2023/09/02 12:00:57;;;;;;;3.70;1.80;;;;;;;27.17;61.30;99511.28;7283230;40;20270;31
2023/09/02 12:06:33;;;;;;;2.30;1.63;;;;;;;27.20;60.90;99508.00;7237486;40;20253;31
2023/09/02 12:12:06;;;;;;;4.07;1.90;;;;;;;27.26;61.64;99514.38;7207214;40;20313;31
2023/09/02 12:17:45;;;;;;;2.42;1.66;;;;;;;27.24;61.98;99519.38;7236614;40;20249;31
2023/09/02 12:23:22;;;;;;;3.05;1.87;;;;;;;27.52;61.42;99527.31;7220922;40;20258;31
2023/09/02 12:29:01;;;;;;;2.50;1.70;;;;;;;27.71;60.98;99530.44;7166243;40;20377;31
2023/09/02 12:39:39;;;;;;;2.65;1.70;;;;;;;27.96;58.76;99524.16;7192522;40;21105;31
2023/09/02 12:45:14;;;;;;;2.42;1.67;;;;;;;28.02;60.05;99532.22;7250308;39;20409;31
2023/09/02 12:55:50;;;;;;;3.52;1.70;;;;;;;28.19;59.01;99534.81;7277517;40;20413;31
2023/09/02 13:01:25;;;;;;;2.25;1.50;;;;;;;28.18;56.46;99533.97;7216605;40;20696;31
2023/09/02 13:07:00;;;;;;;3.17;1.50;;;;;;;28.17;58.40;99531.50;7245127;40;20249;31
2023/09/02 13:12:35;;;;;;;2.95;1.55;;;;;;;28.11;57.79;99522.31;7211213;40;20359;31
2023/09/02 13:18:09;;;;;;;2.42;1.80;;;;;;;28.36;57.14;99526.25;7209434;40;21078;31
2023/09/02 13:23:48;;;;;;;2.33;1.73;;;;;;;28.45;57.08;99522.66;7170271;40;20270;31
2023/09/02 13:34:52;;;;;;;3.50;1.60;;;;;;;28.63;55.83;99538.78;7160368;40;21193;31
2023/09/02 13:45:30;;;;;;;2.60;1.87;;;;;;;28.32;58.42;99534.28;7255673;39;21224;31
2023/09/02 13:51:06;;;;;;;11.38;4.74;;;;;;;28.36;58.73;99526.25;7302041;39;20264;31
2023/09/02 13:56:26;;;;;;;3.00;1.90;;;;;;;28.26;59.19;99535.37;7248295;40;20256;31
2023/09/02 14:01:47;;;;;;;3.25;2.05;;;;;;;28.20;59.37;99547.56;7223684;40;20281;31
2023/09/02 14:07:26;;;;;;;1.80;1.50;;;;;;;28.17;58.17;99548.12;7199849;40;20336;31
2023/09/02 14:13:08;;;;;;;2.85;1.70;;;;;;;28.26;60.13;99546.47;7219705;40;20281;31
2023/09/02 14:18:38;;;;;;;2.75;1.75;;;;;;;28.31;58.89;99543.69;7230532;40;20347;31
2023/09/02 14:24:16;;;;;;;2.17;1.50;;;;;;;28.24;59.26;99548.69;7180464;40;20316;31
2023/09/02 14:29:49;;;;;;;2.90;1.80;;;;;;;28.06;59.24;99555.53;7221354;40;20253;31
2023/09/02 14:35:24;;;;;;;2.65;1.75;;;;;;;27.53;60.20;99555.84;7200906;40;20449;31
2023/09/02 14:41:03;;;;;;;7.18;2.94;;;;;;;27.23;61.37;99562.00;7174249;40;20282;31
2023/09/02 14:51:39;;;;;;;3.10;1.70;;;;;;;27.42;62.24;99548.56;7227467;40;21280;31
2023/09/02 15:02:22;;;;;;;2.65;1.80;;;;;;;27.48;60.72;99555.78;7251322;39;20276;31
2023/09/02 15:07:57;;;;;;;2.62;1.90;;;;;;;27.40;59.75;99554.34;7300705;39;20260;31
2023/09/02 15:13:35;;;;;;;2.55;1.73;;;;;;;27.47;62.05;99551.34;7260865;39;20257;31
2023/09/02 15:19:15;;;;;;;3.17;1.70;;;;;;;27.31;60.66;99569.78;7260385;40;20241;31
2023/09/02 15:24:57;;;;;;;2.30;1.80;;;;;;;26.87;62.08;99581.06;7141184;39;20396;31
2023/09/02 15:35:42;;;;;;;2.00;1.70;;;;;;;26.88;63.91;99577.22;7228430;39;21471;31
2023/09/02 15:41:22;;;;;;;3.64;1.80;;;;;;;26.82;63.60;99569.94;7178566;40;20240;31
2023/09/02 15:46:57;;;;;;;2.95;1.55;;;;;;;26.73;63.38;99582.56;7015033;40;20246;31
2023/09/02 15:52:18;;;;;;;2.37;1.58;;;;;;;26.78;63.02;99585.38;7163835;40;20263;31
2023/09/02 15:57:53;;;;;;;2.28;1.50;;;;;;;26.79;62.87;99584.28;7178024;40;20270;31
2023/09/02 16:03:28;;;;;;;2.50;1.70;;;;;;;26.75;63.25;99585.09;7185668;40;20347;31
2023/09/02 16:09:03;;;;;;;3.34;1.90;;;;;;;26.68;63.75;99579.75;7206110;40;20289;31
2023/09/02 16:19:46;;;;;;;1.97;1.70;;;;;;;26.48;64.00;99579.56;7238670;40;20345;31
2023/09/02 16:30:25;;;;;;;1.77;1.55;;;;;;;26.26;64.73;99578.75;7291483;39;21003;31
2023/09/02 16:36:02;;;;;;;2.22;1.63;;;;;;;26.17;64.34;99570.06;7320719;39;20252;31
2023/09/02 16:41:36;;;;;;;1.87;1.50;;;;;;;26.18;64.96;99571.75;7257993;40;20395;31
2023/09/02 16:47:11;;;;;;;2.90;1.50;;;;;;;26.10;64.91;99571.38;7237055;40;20246;31
2023/09/02 16:52:49;;;;;;;2.55;1.60;;;;;;;25.95;65.40;99581.13;7225746;40;20467;31
2023/09/02 16:58:25;;;;;;;3.05;1.65;;;;;;;25.89;65.73;99576.63;7183262;40;20255;31
2023/09/02 17:04:01;;;;;;;2.35;1.50;;;;;;;25.84;65.97;99576.59;7133548;40;20468;31
2023/09/02 17:09:37;;;;;;;3.12;1.56;;;;;;;25.72;66.53;99578.62;7138923;40;20283;31
2023/09/02 17:14:57;;;;;;;2.78;1.58;;;;;;;25.66;66.92;99565.84;7127438;40;20290;31
2023/09/02 17:25:40;;;;;;;1.65;1.55;;;;;;;25.43;67.66;99569.63;7174778;40;20395;31
2023/09/02 17:36:29;;;;;;;1.70;1.60;;;;;;;25.31;68.02;99570.84;7249614;40;20384;31
2023/09/02 17:42:05;;;;;;;2.22;1.75;;;;;;;25.18;68.56;99571.19;7262895;40;20245;31
2023/09/02 17:47:28;;;;;;;4.70;1.80;;;;;;;25.16;68.89;99576.09;7264942;40;20252;31
2023/09/02 17:53:03;;;;;;;2.35;1.50;;;;;;;25.13;69.40;99583.81;7310564;39;20259;31
2023/09/02 17:58:44;;;;;;;5.05;4.00;;;;;;;24.95;70.12;99578.53;7276823;40;20245;31
2023/09/02 18:04:04;;;;;;;8.15;6.47;;;;;;;24.83;71.22;99582.44;7232455;40;20437;31
2023/09/02 18:09:37;;;;;;;3.25;2.10;;;;;;;24.65;71.91;99586.25;7208027;40;20284;31
2023/09/02 18:15:13;;;;;;;3.03;1.75;;;;;;;24.46;72.55;99595.81;7218683;40;21075;31
2023/09/02 18:20:43;;;;;;;;;;;;;;;;;;;;;
2023/09/02 18:31:16;;;;;;;4.80;2.60;;;;;;;24.16;73.09;99609.84;7219399;40;20272;31
2023/09/02 18:36:50;;;;;;;11.70;10.50;;;;;;;24.04;73.20;99620.87;7207630;39;20250;31
2023/09/02 18:42:25;;;;;;;15.80;12.95;;;;;;;23.88;72.95;99629.03;7285031;39;20445;31
2023/09/02 18:53:07;;;;;;;3.65;2.20;;;;;;;23.66;72.94;99653.59;7250510;40;21176;31
2023/09/02 18:58:30;;;;;;;3.05;2.25;;;;;;;23.50;73.21;99666.19;7252032;40;20270;31
2023/09/02 19:09:11;;;;;;;2.35;1.50;;;;;;;23.36;74.58;99673.78;7275841;40;20982;31
2023/09/02 19:14:47;;;;;;;4.23;1.60;;;;;;;23.36;74.07;99679.28;7223930;40;20257;31
2023/09/02 19:20:22;;;;;;;2.30;1.60;;;;;;;23.30;73.93;99688.50;7290126;39;21178;31
2023/09/02 19:25:58;;;;;;;1.70;1.55;;;;;;;23.19;74.30;99685.72;7200405;40;20243;31
2023/09/02 19:31:21;;;;;;;3.80;1.90;;;;;;;23.04;73.77;99697.16;7178001;40;20525;31
2023/09/02 19:36:43;;;;;;;2.92;1.62;;;;;;;22.89;74.69;99705.88;7203044;40;20457;31
2023/09/02 19:42:21;;;;;;;2.50;1.80;;;;;;;22.79;74.91;99724.00;7214209;40;20346;31
2023/09/02 19:53:24;;;;;;;5.25;1.87;;;;;;;22.54;75.85;99734.25;7176823;40;20465;31
2023/09/02 19:58:58;;;;;;;3.55;1.90;;;;;;;22.45;76.70;99734.56;7227711;40;20343;31
2023/09/02 20:04:19;;;;;;;2.85;1.80;;;;;;;22.46;76.58;99732.66;7206452;40;20246;31
2023/09/02 20:09:55;;;;;;;2.98;1.88;;;;;;;22.10;77.79;99728.00;7255690;40;20346;31
2023/09/02 20:15:35;;;;;;;6.48;1.96;;;;;;;22.08;77.45;99735.63;7230604;40;20262;31
2023/09/02 20:26:21;;;;;;;3.10;1.70;;;;;;;21.88;79.03;99738.56;7186445;40;20586;31
2023/09/02 20:32:00;;;;;;;2.65;1.90;;;;;;;21.81;79.42;99750.63;7224584;40;20261;31
2023/09/02 20:37:20;;;;;;;2.28;1.87;;;;;;;21.76;79.99;99750.50;7258566;40;20256;31
2023/09/02 20:42:40;;;;;;;2.87;2.00;;;;;;;21.76;80.01;99758.72;7276165;40;20241;31
2023/09/02 20:48:23;;;;;;;2.50;2.20;;;;;;;21.70;81.00;99754.12;7231425;40;20263;31
2023/09/02 20:54:05;;;;;;;2.75;1.98;;;;;;;21.72;80.73;99758.31;7178756;40;20366;31
2023/09/02 20:59:39;;;;;;;2.92;1.80;;;;;;;21.75;79.62;99757.03;7208507;40;20254;31
2023/09/02 21:05:21;;;;;;;2.93;1.80;;;;;;;21.77;79.99;99744.75;7254689;40;20292;31
2023/09/02 21:16:28;;;;;;;4.28;1.60;;;;;;;21.73;78.80;99753.66;7295461;39;20280;31
2023/09/02 21:22:04;;;;;;;4.06;1.82;;;;;;;21.61;79.36;99755.47;7339266;39;20355;31
2023/09/02 21:27:24;;;;;;;2.43;1.83;;;;;;;21.65;78.96;99760.28;7272195;40;20307;31
2023/09/02 21:32:48;;;;;;;2.37;1.70;;;;;;;21.69;79.08;99757.94;7235631;40;20281;31
2023/09/02 21:38:25;;;;;;;2.35;1.80;;;;;;;21.63;78.86;99764.34;7241635;40;20277;31
2023/09/02 21:49:03;;;;;;;2.80;1.90;;;;;;;21.47;79.80;99772.03;7212854;40;21088;31
2023/09/02 21:59:45;;;;;;;3.95;2.15;;;;;;;21.29;80.63;99785.69;7253939;39;20265;31
2023/09/02 22:05:38;;;;;;;3.83;2.00;;;;;;;21.27;80.78;99787.81;7245881;40;20274;31
2023/09/02 22:11:03;;;;;;;2.67;1.67;;;;;;;21.13;81.27;99772.50;7153711;40;20260;31
2023/09/02 22:16:40;;;;;;;2.90;2.13;;;;;;;21.11;81.34;99771.84;7239511;40;20272;31
2023/09/02 22:22:17;;;;;;;3.40;2.10;;;;;;;20.99;81.06;99779.94;7239812;40;21071;31
2023/09/02 22:27:52;;;;;;;4.55;2.10;;;;;;;20.96;81.89;99785.03;7197535;40;20445;31
2023/09/02 22:33:25;;;;;;;3.47;1.83;;;;;;;20.97;81.05;99781.22;7157215;40;20285;31
2023/09/02 22:39:00;;;;;;;3.83;2.17;;;;;;;20.95;81.34;99783.34;7189893;40;20246;31
2023/09/02 22:44:21;;;;;;;4.80;2.15;;;;;;;21.01;81.49;99783.31;7027263;40;20349;31
2023/09/02 22:49:56;;;;;;;2.60;2.12;;;;;;;20.90;81.75;99780.41;7265637;39;20245;31
2023/09/02 22:55:32;;;;;;;4.43;1.87;;;;;;;20.97;81.41;99775.75;7237101;40;20250;31
2023/09/02 23:00:53;;;;;;;4.08;2.00;;;;;;;21.05;80.26;99784.56;7185574;40;20285;31
2023/09/02 23:06:30;;;;;;;1.60;1.50;;;;;;;20.96;81.41;99780.37;7184434;40;20265;31
2023/09/02 23:17:09;;;;;;;4.80;1.70;;;;;;;20.93;80.12;99780.00;7247062;39;20280;31
2023/09/02 23:27:52;;;;;;;2.42;1.80;;;;;;;20.82;81.30;99792.47;7303191;39;21274;31
2023/09/02 23:33:27;;;;;;;2.12;1.80;;;;;;;20.82;81.19;99786.16;7259965;40;20285;31
2023/09/02 23:38:47;;;;;;;4.75;1.80;;;;;;;20.80;80.64;99791.84;7259033;40;20251;31
2023/09/02 23:44:24;;;;;;;3.55;1.90;;;;;;;20.65;80.79;99794.03;7235855;40;20296;31
2023/09/02 23:49:45;;;;;;;5.60;1.80;;;;;;;20.59;81.29;99790.25;7251560;40;20290;31
2023/09/02 23:55:18;;;;;;;4.70;1.75;;;;;;;20.49;82.03;99787.13;7283817;39;20371;31
